Data ze zpráv METAR

Na této stránce "Data ze zpráv METAR" si můžete prohlédnout aktuální data o počasí z českých letišť.

LKKB - Kbely, Czech Republic
Distance from station: JJZ 98km
Aktualizováno v: 19/11/2017 09:00
Oblačno
Oblačno
 Vítr od JZ
Vítr: JZ 22 km/h
Teplota vzduchu: 3°C
Wind Chill: -2°C
Rosný bod: 1°C
Vlhkost: 87%
Tlak vzduchu: 1010 hPa
Clouds: Oblačno
Visibility: 10 km
Cloud details: Few Clouds 762 m
Oblačno 1829 m
2017/11/19 08:00 LKKB 190800Z 23012KT 9999 FEW025 BKN060 03/01 Q1010 NOSIG
LKPR - Prague/Ruzyne, Czech Republic
Distance from station: JJZ 108km
Aktualizováno v: 19/11/2017 09:30
Few Clouds
Few Clouds
 Vítr od JZ
Vítr: JZ 22 km/h
Teplota vzduchu: 2°C
Wind Chill: -3°C
Rosný bod: 1°C
Vlhkost: 93%
Tlak vzduchu: 1010 hPa
Clouds: Few Clouds
Visibility: 10 km
Cloud details: Few Clouds 305 m
2017/11/19 08:30 LKPR 190830Z 23012KT 9999 FEW010 02/01 Q1010 NOSIG
 
LKPD - Pardubice, Czech Republic
Distance from station: JJV 111km
Aktualizováno v: 19/11/2017 09:00
Oblačno
Oblačno
 Vítr od Z
Vítr: Z 9 km/h
Teplota vzduchu: 2°C
Wind Chill: -1°C
Rosný bod: 1°C
Vlhkost: 93%
Tlak vzduchu: 1010 hPa
Clouds: Oblačno
Visibility: 10 km
Cloud details: Few Clouds 1128 m
Oblačno 1524 m
2017/11/19 08:00 LKPD 190800Z 26005KT 9999 FEW037 BKN050 02/01 Q1010 NOSIG RMK BLU BLU
LKCV - Caslav, Czech Republic
Distance from station: JJV 113km
Aktualizováno v: 19/11/2017 09:00
Oblačno
Oblačno
 Vítr od ZJZ
Vítr: ZJZ 17 km/h
Teplota vzduchu: 3°C
Wind Chill: -1°C
Rosný bod: 1°C
Vlhkost: 87%
Tlak vzduchu: 1010 hPa
Clouds: Oblačno
Visibility: 10 km
Cloud details: Polojasno 1250 m
Oblačno 1524 m
2017/11/19 08:00 LKCV 190800Z 25009KT 9999 SCT041 BKN050 03/01 Q1010 NOSIG RMK BLU BLU
 
LKKV - Karlovy Vary, Czech Republic
Distance from station: ZJZ 173km
Aktualizováno v: 19/11/2017 09:30
Oblačno
Oblačno
 Vítr od ZJZ
Vítr: ZJZ 15 km/h
Teplota vzduchu: 0°C
Wind Chill: -4°C
Rosný bod: -1°C
Vlhkost: 93%
Tlak vzduchu: 1010 hPa
Clouds: Oblačno
Visibility: 10 km
Cloud details: Polojasno 274 m
Oblačno 518 m
Oblačno 701 m
2017/11/19 08:30 LKKV 190830Z 25008KT 210V280 9999 SCT009 BKN017 BKN023 00/M01 Q1010 R29/620195
LKLN - Plzen Line, Czech Republic
Distance from station: JZ 189km
Aktualizováno v: 16/11/2017 16:00
NOT Current
Slabý déšť, Sníh, Few clouds
Slabý déšť, Sníh, Few clouds
 Vítr od JJZ
Vítr: JJZ 9 km/h
Teplota vzduchu: 3°C
Wind Chill: 0°C
Rosný bod: 0°C
Vlhkost: 81%
Tlak vzduchu: 1023 hPa
Souhrn: Slabý déšť, Sníh
Clouds: Few Clouds
Visibility: 10 km
Cloud details: Few Clouds 579 m
2017/11/16 15:00 LKLN 161500Z AUTO 21005KT 9999 -RASN FEW019 03/00 Q1023
 
LKNA - Namest, Czech Republic
Distance from station: JJV 209km
Aktualizováno v: 19/11/2017 09:24
Slabý déšť, Sníh, Zataženo
Slabý déšť, Sníh, Zataženo
 Vítr od ZJZ
Vítr: ZJZ 11 km/h
Teplota vzduchu: 1°C
Wind Chill: -2°C
Rosný bod: 1°C
Vlhkost: 100%
Tlak vzduchu: 1010 hPa
Souhrn: Slabý déšť, Sníh
Clouds: Zataženo
Visibility: 6 km
Cloud details: Oblačno 122 m
Oblačno 1036 m
Zataženo 1524 m
2017/11/19 08:24 LKNA 190824Z 24006KT 6000 -RASN BKN004 BKN034 OVC050 01/01 Q1010 RMK BLACK
LKTB - Brno/Turany, Czech Republic
Distance from station: JJV 230km
Aktualizováno v: 19/11/2017 09:30
Slabý déšť, Zataženo
Slabý déšť, Zataženo
 Vítr od JZ
Vítr: JZ 15 km/h
Teplota vzduchu: 3°C
Wind Chill: -1°C
Rosný bod: 2°C
Vlhkost: 93%
Tlak vzduchu: 1011 hPa
Souhrn: Slabý déšť
Clouds: Zataženo
Visibility: 10 km
Cloud details: Oblačno 335 m
Zataženo 914 m
2017/11/19 08:30 LKTB 190830Z 23008KT 9999 -RA BKN011 OVC030 03/02 Q1011 NOSIG